x

Capers Nearshore (cap 2) (41029) Weather Station

11:08am - Fri 20th Jul 2018 All times are EDT. -4 hours from GMT.

  • Wind
    16mph, 22mph gusts
  • Sea Temp 83°f
  • Air Temp 79°f
  • Sea Pressure 1014.8mb
  • Capers Nearshore (cap 2)
  • Capers Nearshore (cap 2)

More Historic Weather Station data

Upgrade to MSW Pro to gain access to the past 30 days of data for over 8000 Wavebouys and Weather Stations around the globe.

Join

Comparision Forecast

View Surf forecast
   
Fri 07/20 11:08am 16 22 mph 1014.8mb 83f 79f
10:08am 13 18 mph 1014.2mb 83f 82f
9:08am 9 13 mph 1014mb 84f 81f
8:08am 2 7 mph 1013.9mb 84f 80f
7:08am 13 20 mph 1012.8mb 84f 80f
6:08am 16 22 mph 1013.2mb 84f 81f
5:08am 20 27 mph 1012.7mb 84f 78f
4:08am 13 20 mph 1013.3mb 84f 79f
3:08am 11 18 mph 1013.3mb 84f 78f
2:08am 11 20 mph 1013.9mb 84f 79f
1:08am 4 11 mph 1014.9mb 84f 79f
12:08am 9 16 mph 1015.2mb 84f 81f
Thu 07/19 11:08pm 11 16 mph 1015mb 84f 82f
10:08pm 13 18 mph 1014.6mb 84f 82f
9:08pm 11 16 mph 1014.6mb 84f 82f
8:08pm 11 16 mph 1015.2mb 84f 82f
7:08pm 16 20 mph 1014.4mb 84f 82f
6:08pm 16 20 mph 1014.7mb 84f 82f
5:08pm 16 22 mph 1014mb 84f 82f
4:08pm 16 22 mph 1014.5mb 84f 82f
3:08pm 16 22 mph 1015.2mb 84f 82f
2:08pm 16 20 mph 1015.5mb 84f 81f
1:08pm 16 20 mph 1015.9mb 84f 81f
12:08pm 11 18 mph 1015.7mb 84f 79f
11:08am 16 20 mph 1015.6mb 84f 77f
10:08am 16 20 mph 1015.8mb 84f 78f
9:08am 25 38 mph 1014.9mb 84f 78f
8:08am 4 13 mph 1013.8mb 84f 81f
7:08am 7 9 mph 1013.5mb 84f 83f
6:08am 7 9 mph 1012.4mb 84f 82f
5:08am 7 9 mph 1012.6mb 84f 82f
4:08am 4 9 mph 1012.9mb 84f 82f
3:08am 9 11 mph 1012.4mb 84f 81f
2:08am 7 9 mph 1012.9mb 84f 82f
1:08am 2 7 mph 1013.1mb 84f 81f
12:08am 7 9 mph 1013.6mb 84f 80f
Wed 07/18 11:08pm 2 4 mph 1013.1mb 84f 82f
10:08pm 9 11 mph 1012.7mb 84f 81f
9:08pm 11 16 mph 1012.7mb 84f 80f
8:08pm 11 18 mph 1012.3mb 84f 79f
7:08pm 7 11 mph 1012.6mb 84f 81f
6:08pm 13 20 mph 1012.7mb 85f 79f
4:08pm 18 22 mph 1011mb 85f 84f
3:08pm 16 20 mph 1011.6mb 86f 84f
1:08pm 11 16 mph 1013.4mb 85f 84f
12:08pm 9 13 mph 1013.4mb 85f 83f
11:08am 11 16 mph 1013.8mb 85f 82f
10:08am 9 13 mph 1013.5mb 84f 82f
9:08am 9 13 mph 1013.7mb 84f 80f
8:08am 13 18 mph 1013.4mb 84f 80f
7:08am 13 20 mph 1012.7mb 84f 81f
6:08am 16 18 mph 1012.3mb 84f 81f
5:08am 16 18 mph 1011.8mb 84f 81f
4:08am 18 22 mph 1012.5mb 84f 82f
3:08am 20 27 mph 1012.5mb 84f 83f
2:08am 20 27 mph 1012.7mb 84f 84f
1:08am 20 27 mph 1013.3mb 84f 84f
12:08am 20 25 mph 1013.7mb 85f 83f
Tue 07/17 11:08pm 18 25 mph 1013.9mb 85f 83f
9:08pm 18 22 mph 1013.2mb 85f 83f
8:08pm 18 25 mph 1013.3mb 85f 82f
7:08pm 22 29 mph 1013.7mb 85f 81f
6:08pm 22 38 mph 1014.1mb 85f 79f
5:08pm 25 34 mph 1014.1mb 85f 85f
4:08pm 20 25 mph 1013.7mb 85f 84f
3:08pm 18 22 mph 1013.7mb 85f 84f
2:08pm 18 22 mph 1014.4mb 85f 84f
1:08pm 18 25 mph 1016.3mb 85f 84f
12:08pm 18 22 mph 1015.9mb 84f 84f
11:08am 18 25 mph 1015.9mb 84f 84f
10:08am 18 31 mph 1016mb 84f 80f
9:08am 16 22 mph 1016.3mb 84f 84f
8:08am 16 20 mph 1016.3mb 84f 84f
7:08am 16 20 mph 1015.6mb 84f 83f
6:08am 16 22 mph 1015.2mb 84f 83f
5:08am 18 22 mph 1014.5mb 84f 83f
3:08am 13 18 mph 1015.7mb 84f 82f
2:08am 16 20 mph 1015.7mb 84f 81f
1:08am 20 27 mph 1016.5mb 84f 79f
12:08am 27 36 mph 1015.5mb 85f 80f
Mon 07/16 11:08pm 29 43 mph 1016.3mb 85f 82f
10:08pm 16 20 mph 1016.1mb 85f 83f
9:08pm 13 18 mph 1016.1mb 85f 83f
8:08pm 11 18 mph 1015.7mb 85f 83f
7:08pm 9 13 mph 1015.8mb 85f 83f
6:08pm 11 18 mph 1015.6mb 85f 83f
5:08pm 9 11 mph 1016.1mb 85f 83f